Main page
METAR-TAF:

METAR-TAF

Airports :

Sint Maarten, Netherlands Antilles

Princess Juliana International Airport

latitude: 18-03N, longitude: 063-07W, elevation: 4 m

Current weather observation

The report was made 12 minutes ago, at 23:00 UTC
Wind 9 kt from the East/Northeast
Temperature 29°C
Humidity 74%
Pressure 1013 hPa
Visibility 10 km or more
Few clouds at a height of 1800 ft

METAR: TNCM 232300Z 07009KT 9999 FEW018 29/24 Q1012 A2991 NOSIG

Time: 19:12 (23:12 UTC)

Forecast

The report was made 5 hours and 47 minutes ago, at 17:25 UTC
Forecast valid from 23 at 18 UTC to 24 at 18 UTC
Wind 9 kt from the East/Northeast
Visibility: 10 km
Few clouds at a height of 2000 ft
From 23 at 2100 UTC
Wind 6 kt from the East
Visibility: 10 km
Few clouds at a height of 3000 ft
From 24 at 0000 UTC
Wind 10 kt from the East/Southeast
Visibility: 10 km
Scattered clouds at a height of 2000 ft
showers in vicinity

TAF: TNCM 231725Z 2318/2418 07009KT P6SM FEW020 FM232100 08006KT P6SM FEW030 FM240000 11010KT P6SM VCSH SCT020

Weather observations and forecasts of more than 4000 airports (METAR and TAF reports).

The available stations are represented by yellow and red dots on the map.

Hover mouse over dot to see the name of the station.

Then click to see weather observations and forecasts.

To change the map : click on the green buttons with a black cross to zoom in, on the green button with a dash to zoom out, or on the green arrows for adjacent maps.


METAR-TAF: